Latest Weather Observations for St Kilda Harbour RMYS

IDV60801

Issued at 7:05 pm EST Tuesday 16 September 2014 (issued every 30 minutes, with the page automatically refreshed every 10 minutes)

About weather observations | Map of weather stations | Latest weather observations for VIC | Other Formats
Station Details ID: 086220 Name: ST KILDA HARBOUR - RMYS Lat: -37.86 Lon: 144.96 Height: 6.4 m
Data from the previous 72 hours. | See also: Recent months for locations in Victoria
Date/Time
EST
Temp
°C
App
Temp
°C
Dew
Point
Rel
Hum
%
Delta-T
°C
Wind Press
QNH
hPa
Press
MSL
hPa
Rain
since 9 am
mm
Dir
 
Spd
km/h
Gust
km/h
Spd
kts
Gust
kts
16/07:00pm - - - - - SSW 28 33 15 18 - - -
16/06:30pm - - - - - SSW 33 41 18 22 - - -
16/06:00pm - - - - - SSW 26 33 14 18 - - -
16/05:30pm - - - - - SSW 30 37 16 20 - - -
16/05:00pm - - - - - SSW 43 54 23 29 - - -
16/04:30pm - - - - - SSW 32 39 17 21 - - -
16/04:00pm - - - - - SW 24 32 13 17 - - -
16/03:30pm - - - - - SW 32 41 17 22 - - -
16/03:00pm - - - - - SW 32 41 17 22 - - -
16/02:30pm - - - - - SSW 33 41 18 22 - - -
16/02:00pm - - - - - SW 37 44 20 24 - - -
16/01:30pm - - - - - SSW 37 50 20 27 - - -
16/01:00pm - - - - - SW 33 52 18 28 - - -
16/12:53pm - - - - - SW 33 52 18 28 - - -
16/12:30pm - - - - - SW 26 32 14 17 - - -
16/12:00pm - - - - - SW 20 26 11 14 - - -
16/11:30am - - - - - WSW 24 30 13 16 - - -
16/11:00am - - - - - WSW 30 35 16 19 - - -
16/10:30am - - - - - WSW 30 35 16 19 - - -
16/10:00am - - - - - WSW 26 30 14 16 - - -
16/09:30am - - - - - W 22 28 12 15 - - -
16/09:00am - - - - - W 26 30 14 16 - - -
16/08:30am - - - - - W 26 30 14 16 - - -
16/08:00am - - - - - WSW 20 24 11 13 - - -
16/07:30am - - - - - SW 28 35 15 19 - - -
16/07:00am - - - - - S 11 17 6 9 - - -
16/06:30am - - - - - W 9 17 5 9 - - -
16/06:00am - - - - - WNW 7 11 4 6 - - -
16/05:30am - - - - - WNW 11 17 6 9 - - -
16/05:00am - - - - - NNW 9 13 5 7 - - -
16/04:30am - - - - - NNW 7 11 4 6 - - -
16/04:00am - - - - - N 7 11 4 6 - - -
16/03:30am - - - - - N 7 11 4 6 - - -
16/03:00am - - - - - NNW 9 13 5 7 - - -
16/02:30am - - - - - NNW 7 11 4 6 - - -
16/02:00am - - - - - NW 11 13 6 7 - - -
16/01:30am - - - - - NNW 9 13 5 7 - - -
16/01:00am - - - - - NW 9 13 5 7 - - -
16/12:30am - - - - - SSE 4 4 2 2 - - -
16/12:00am - - - - - E 7 13 4 7 - - -
 
Date/Time
EST
Temp
°C
App
Temp
°C
Dew
Point
Rel
Hum
%
Delta-T
°C
Wind Press
QNH
hPa
Press
MSL
hPa
Rain
since 9 am
mm
Dir
 
Spd
km/h
Gust
km/h
Spd
kts
Gust
kts
15/11:30pm - - - - - ENE 7 11 4 6 - - -
15/11:00pm - - - - - E 4 9 2 5 - - -
15/10:30pm - - - - - E 6 13 3 7 - - -
15/10:00pm - - - - - E 15 22 8 12 - - -
15/09:30pm - - - - - E 13 19 7 10 - - -
15/09:00pm - - - - - E 17 24 9 13 - - -
15/08:30pm - - - - - ESE 17 22 9 12 - - -
15/08:00pm - - - - - ESE 19 24 10 13 - - -
15/07:30pm - - - - - ESE 17 24 9 13 - - -
15/07:00pm - - - - - ESE 13 19 7 10 - - -
15/06:30pm - - - - - ESE 9 13 5 7 - - -
15/06:00pm - - - - - E 15 22 8 12 - - -
15/05:30pm - - - - - E 20 26 11 14 - - -
15/05:00pm - - - - - ESE 22 30 12 16 - - -
15/04:30pm - - - - - ESE 20 30 11 16 - - -
15/04:00pm - - - - - ESE 24 32 13 17 - - -
15/03:30pm - - - - - ESE 17 22 9 12 - - -
15/03:00pm - - - - - ESE 17 24 9 13 - - -
15/02:30pm - - - - - SE 17 22 9 12 - - -
15/02:00pm - - - - - ESE 13 20 7 11 - - -
15/01:30pm - - - - - ESE 15 19 8 10 - - -
15/01:00pm - - - - - ESE 17 20 9 11 - - -
15/12:30pm - - - - - ESE 11 15 6 8 - - -
15/12:00pm - - - - - S 11 15 6 8 - - -
15/11:30am - - - - - S 15 17 8 9 - - -
15/11:00am - - - - - S 13 15 7 8 - - -
15/10:30am - - - - - SSE 7 13 4 7 - - -
15/10:00am - - - - - E 2 6 1 3 - - -
15/09:30am - - - - - NE 2 7 1 4 - - -
15/09:00am - - - - - NNE 6 9 3 5 - - -
15/08:30am - - - - - NNE 9 13 5 7 - - -
15/08:00am - - - - - NNE 9 13 5 7 - - -
15/07:30am - - - - - NE 7 9 4 5 - - -
15/07:00am - - - - - E 7 9 4 5 - - -
15/06:30am - - - - - NE 4 7 2 4 - - -
15/06:00am - - - - - ENE 4 6 2 3 - - -
15/05:30am - - - - - NNE 4 7 2 4 - - -
15/05:00am - - - - - N 2 4 1 2 - - -
15/04:30am - - - - - NNW 6 7 3 4 - - -
15/04:00am - - - - - NNE 4 6 2 3 - - -
15/03:30am - - - - - ESE 11 13 6 7 - - -
15/03:00am - - - - - SE 7 9 4 5 - - -
15/02:30am - - - - - SE 4 6 2 3 - - -
15/02:00am - - - - - ESE 4 7 2 4 - - -
15/01:30am - - - - - S 7 9 4 5 - - -
15/01:00am - - - - - SSE 6 7 3 4 - - -
15/12:30am - - - - - SSE 6 9 3 5 - - -
15/12:00am - - - - - SE 7 11 4 6 - - -
 
Date/Time
EST
Temp
°C
App
Temp
°C
Dew
Point
Rel
Hum
%
Delta-T
°C
Wind Press
QNH
hPa
Press
MSL
hPa
Rain
since 9 am
mm
Dir
 
Spd
km/h
Gust
km/h
Spd
kts
Gust
kts
14/11:30pm - - - - - S 11 13 6 7 - - -
14/11:00pm - - - - - S 9 11 5 6 - - -
14/10:30pm - - - - - S 9 11 5 6 - - -
14/10:00pm - - - - - SSE 11 15 6 8 - - -
14/09:30pm - - - - - SE 11 17 6 9 - - -
14/09:00pm - - - - - SE 13 20 7 11 - - -
14/08:30pm - - - - - SE 19 24 10 13 - - -
14/08:00pm - - - - - SE 15 19 8 10 - - -
14/07:30pm - - - - - SE 19 26 10 14 - - -
14/07:00pm - - - - - SE 20 28 11 15 - - -
14/06:30pm - - - - - SE 19 26 10 14 - - -
14/06:00pm - - - - - SE 17 24 9 13 - - -
14/05:30pm - - - - - S 24 28 13 15 - - -
14/05:00pm - - - - - S 28 32 15 17 - - -
14/04:30pm - - - - - S 28 33 15 18 - - -
14/04:00pm - - - - - S 32 35 17 19 - - -
14/03:30pm - - - - - S 32 35 17 19 - - -
14/03:00pm - - - - - S 32 35 17 19 - - -
14/02:30pm - - - - - S 26 30 14 16 - - -
14/02:00pm - - - - - SSE 26 28 14 15 - - -
14/01:30pm - - - - - S 19 22 10 12 - - -
14/01:00pm - - - - - S 19 20 10 11 - - -
14/12:30pm - - - - - SW 15 17 8 9 - - -
14/12:00pm - - - - - SW 9 9 5 5 - - -
14/11:30am - - - - - SSW 11 13 6 7 - - -
14/11:00am - - - - - SSW 7 9 4 5 - - -
14/10:30am - - - - - N 6 7 3 4 - - -
14/10:00am - - - - - N 7 9 4 5 - - -
14/09:30am - - - - - N 7 11 4 6 - - -
14/09:00am - - - - - NNE 9 15 5 8 - - -
14/08:30am - - - - - N 9 13 5 7 - - -
14/08:00am - - - - - NNE 11 15 6 8 - - -
14/07:30am - - - - - N 9 13 5 7 - - -
14/07:00am - - - - - N 9 15 5 8 - - -
14/06:30am - - - - - N 7 11 4 6 - - -
14/06:00am - - - - - N 7 13 4 7 - - -
14/05:30am - - - - - N 11 15 6 8 - - -
14/05:00am - - - - - NNE 7 9 4 5 - - -
14/04:30am - - - - - N 6 9 3 5 - - -
14/04:00am - - - - - N 6 9 3 5 - - -
14/03:30am - - - - - N 6 7 3 4 - - -
14/03:00am - - - - - NW 6 6 3 3 - - -
14/02:30am - - - - - NNW 6 6 3 3 - - -
14/02:00am - - - - - NNW 6 6 3 3 - - -
14/01:30am - - - - - N 6 7 3 4 - - -
14/01:00am - - - - - N 6 7 3 4 - - -
14/12:30am - - - - - NNW 4 4 2 2 - - -
14/12:00am - - - - - N 4 6 2 3 - - -
 
Date/Time
EST
Temp
°C
App
Temp
°C
Dew
Point
Rel
Hum
%
Delta-T
°C
Wind Press
QNH
hPa
Press
MSL
hPa
Rain
since 9 am
mm
Dir
 
Spd
km/h
Gust
km/h
Spd
kts
Gust
kts
13/11:30pm - - - - - NNE 6 7 3 4 - - -
13/11:00pm - - - - - NNE 6 7 3 4 - - -
13/10:30pm - - - - - NE 7 9 4 5 - - -
13/10:00pm - - - - - ENE 7 13 4 7 - - -
13/09:30pm - - - - - ESE 7 9 4 5 - - -
13/09:00pm - - - - - ESE 9 13 5 7 - - -
13/08:30pm - - - - - SE 13 19 7 10 - - -
13/08:00pm - - - - - SSE 15 19 8 10 - - -
13/07:30pm - - - - - SSE 15 19 8 10 - - -

Other Formats:

Comma delimited format used in spreadsheet applications
http://www.bom.gov.au/fwo/IDV60801/IDV60801.95864.axf

JavaScript Object Notation format (JSON) in row-major order
http://www.bom.gov.au/fwo/IDV60801/IDV60801.95864.json